Time;durP1;ratioP1;P1;durP2;ratioP2;P2;SDS_P1;SDS_P2;PMS_P1;PMS_P2;Temp;Humidity;BMP_temperature;BMP_pressure;BME280_temperature;BME280_humidity;BME280_pressure;Samples;Min_cycle;Max_cycle;Signal;HPM_P1;HPM_P2
2021/12/29 00:02:13;;;;;;;13.75;4.38;;;;;;;7.90;100.00;99924.28;4960231;28;20029;-72
2021/12/29 00:04:38;;;;;;;8.18;4.00;;;;;;;7.85;100.00;99925.59;4959063;28;20496;-72
2021/12/29 00:07:03;;;;;;;9.60;4.25;;;;;;;7.86;100.00;99933.53;4969287;28;20034;-72
2021/12/29 00:09:32;;;;;;;9.07;3.67;;;;;;;7.96;100.00;99946.97;4958604;28;20035;-72
2021/12/29 00:11:57;;;;;;;6.50;3.95;;;;;;;8.03;100.00;99956.22;4947663;28;20050;-78
2021/12/29 00:14:23;;;;;;;11.13;4.18;;;;;;;7.91;100.00;99946.50;4962142;28;20145;-72
2021/12/29 00:16:48;;;;;;;5.95;3.47;;;;;;;7.96;100.00;99963.03;4965655;28;20302;-72
2021/12/29 00:19:13;;;;;;;11.43;4.80;;;;;;;7.88;100.00;99954.75;4943506;28;20031;-72
2021/12/29 00:21:39;;;;;;;11.43;4.65;;;;;;;8.03;100.00;99982.94;4965196;28;20032;-72
2021/12/29 00:24:05;;;;;;;13.02;5.43;;;;;;;8.16;100.00;100000.66;4962332;28;20018;-72
2021/12/29 00:26:32;;;;;;;14.10;5.68;;;;;;;8.08;100.00;100003.94;4960623;28;20090;-72
2021/12/29 00:29:00;;;;;;;8.40;5.18;;;;;;;8.02;100.00;100004.44;4944411;28;20039;-71
2021/12/29 00:31:27;;;;;;;18.92;6.47;;;;;;;8.17;100.00;100027.28;4948430;28;20398;-72
2021/12/29 00:33:52;;;;;;;11.85;4.63;;;;;;;8.05;100.00;100028.25;4945001;28;20464;-71
2021/12/29 00:36:18;;;;;;;11.25;5.15;;;;;;;8.02;100.00;100032.03;4945778;28;20139;-72
2021/12/29 00:38:45;;;;;;;14.73;5.53;;;;;;;7.94;100.00;100026.44;4928739;28;20371;-72
2021/12/29 00:41:10;;;;;;;11.65;4.50;;;;;;;8.04;100.00;100042.59;4963495;28;20030;-71
2021/12/29 00:43:36;;;;;;;13.10;4.45;;;;;;;7.99;100.00;100026.94;4946655;28;20402;-72
2021/12/29 00:46:01;;;;;;;11.85;4.97;;;;;;;8.06;100.00;100049.53;4947936;28;20058;-72
2021/12/29 00:48:35;;;;;;;10.75;4.70;;;;;;;7.90;100.00;100039.22;4945789;28;20029;-72
2021/12/29 00:51:00;;;;;;;12.85;5.13;;;;;;;8.01;100.00;100069.56;4932727;28;20034;-72
2021/12/29 00:53:25;;;;;;;15.43;5.47;;;;;;;8.06;100.00;100070.94;4927168;28;20407;-72
2021/12/29 00:55:51;;;;;;;14.15;4.68;;;;;;;7.95;100.00;100063.72;4968243;28;20277;-71
2021/12/29 00:58:16;;;;;;;12.90;4.90;;;;;;;8.00;100.00;100086.56;4962720;28;20166;-71
2021/12/29 01:00:42;;;;;;;17.38;6.15;;;;;;;8.00;100.00;100083.91;4949037;28;20097;-72
2021/12/29 01:03:08;;;;;;;15.02;5.07;;;;;;;8.00;100.00;100086.56;4964116;28;20678;-71
2021/12/29 01:05:33;;;;;;;8.82;4.30;;;;;;;7.97;100.00;100079.66;4949400;28;20031;-70
2021/12/29 01:07:59;;;;;;;10.98;4.85;;;;;;;7.85;100.00;100077.94;4926558;28;20483;-72
2021/12/29 01:10:24;;;;;;;18.13;5.13;;;;;;;7.77;100.00;100079.41;4946211;28;20037;-70
2021/12/29 01:12:57;;;;;;;12.45;4.07;;;;;;;7.80;100.00;100073.84;4943230;28;20043;-71
2021/12/29 01:15:31;;;;;;;17.92;5.65;;;;;;;8.02;100.00;100106.03;4930982;28;20042;-70
2021/12/29 01:17:57;;;;;;;;;;;;;;;8.03;100.00;100121.09;4966579;28;20022;-72
2021/12/29 01:20:24;;;;;;;9.35;4.38;;;;;;;7.92;100.00;100111.25;4944866;28;19924;-72
2021/12/29 01:22:50;;;;;;;11.18;4.13;;;;;;;7.97;100.00;100135.81;4946630;28;20050;-71
2021/12/29 01:25:16;;;;;;;11.95;4.97;;;;;;;7.95;100.00;100135.06;4940794;28;20789;-72
2021/12/29 01:27:41;;;;;;;14.43;5.30;;;;;;;7.74;100.00;100118.88;4946673;28;20041;-71
2021/12/29 01:30:10;;;;;;;10.35;4.53;;;;;;;7.98;100.00;100161.56;4947136;28;20370;-71
2021/12/29 01:32:37;;;;;;;17.58;5.32;;;;;;;7.97;100.00;100167.88;4967710;28;20526;-72
2021/12/29 01:35:02;;;;;;;12.68;5.45;;;;;;;8.00;100.00;100158.75;4951077;28;20042;-72
2021/12/29 01:37:28;;;;;;;12.93;5.50;;;;;;;7.93;100.00;100180.66;4949775;28;20023;-72
2021/12/29 01:39:53;;;;;;;10.75;5.25;;;;;;;8.00;100.00;100193.50;4943768;28;20030;-71
2021/12/29 01:42:18;;;;;;;11.73;4.95;;;;;;;8.03;100.00;100203.97;4964877;28;20081;-71
2021/12/29 01:44:44;;;;;;;12.85;6.22;;;;;;;7.91;100.00;100197.75;4959779;28;20055;-71
2021/12/29 01:47:09;;;;;;;15.57;6.30;;;;;;;7.87;100.00;100207.84;4961767;28;20070;-71
2021/12/29 01:49:34;;;;;;;20.35;8.45;;;;;;;7.84;100.00;100191.16;4959665;28;20150;-72
2021/12/29 01:52:10;;;;;;;15.48;6.22;;;;;;;7.97;100.00;100213.31;4959289;28;20027;-71
2021/12/29 01:54:35;;;;;;;15.85;6.20;;;;;;;7.90;100.00;100209.41;4969498;28;20057;-72
2021/12/29 01:57:03;;;;;;;14.43;6.63;;;;;;;7.88;100.00;100211.34;4961724;28;20480;-71
2021/12/29 01:59:28;;;;;;;17.63;7.90;;;;;;;7.91;100.00;100208.44;4960075;28;20113;-71
2021/12/29 02:01:54;;;;;;;14.18;6.72;;;;;;;7.92;100.00;100216.38;4963178;28;20125;-71
2021/12/29 02:04:19;;;;;;;20.00;7.53;;;;;;;7.77;100.00;100190.78;4963918;28;20026;-71
2021/12/29 02:06:47;;;;;;;16.77;7.90;;;;;;;7.90;100.00;100212.09;4960131;28;20444;-70
2021/12/29 02:09:12;;;;;;;14.93;7.65;;;;;;;7.90;100.00;100212.09;4967923;28;20038;-70
2021/12/29 02:11:38;;;;;;;13.18;6.35;;;;;;;7.93;100.00;100219.88;4962274;28;20035;-71
2021/12/29 02:14:06;;;;;;;14.02;6.93;;;;;;;7.91;100.00;100222.69;4949695;28;20038;-71
2021/12/29 02:16:32;;;;;;;16.50;7.55;;;;;;;7.87;100.00;100225.69;4964622;28;20039;-71
2021/12/29 02:19:00;;;;;;;16.52;7.65;;;;;;;7.85;100.00;100233.81;4948801;28;20083;-71
2021/12/29 02:21:27;;;;;;;15.77;7.32;;;;;;;7.90;100.00;100241.50;4946329;28;20429;-71
2021/12/29 02:26:36;;;;;;;14.10;7.22;;;;;;;7.93;100.00;100251.94;4957738;28;20049;-70
2021/12/29 02:29:03;;;;;;;19.10;8.38;;;;;;;7.95;100.00;100248.19;4966104;28;20038;-71
2021/12/29 02:31:29;;;;;;;21.60;9.02;;;;;;;7.90;100.00;100258.41;4928031;28;20031;-71
2021/12/29 02:33:56;;;;;;;14.95;7.20;;;;;;;7.90;100.00;100250.38;4954847;28;20050;-70
2021/12/29 02:36:21;;;;;;;27.08;8.48;;;;;;;7.98;100.00;100264.94;4963512;28;20035;-71
2021/12/29 02:38:51;;;;;;;16.48;7.25;;;;;;;7.93;100.00;100262.66;4972074;28;20034;-71
2021/12/29 02:41:17;;;;;;;19.13;7.65;;;;;;;7.99;100.00;100285.38;4964945;28;20046;-71
2021/12/29 02:43:43;;;;;;;21.10;9.38;;;;;;;7.95;100.00;100274.91;4962486;28;20030;-70
2021/12/29 02:46:12;;;;;;;19.83;7.57;;;;;;;8.00;100.00;100266.56;4964542;28;20077;-71
2021/12/29 02:48:48;;;;;;;20.80;7.90;;;;;;;7.99;100.00;100272.88;4962748;28;20054;-70
2021/12/29 02:51:14;;;;;;;16.65;6.93;;;;;;;8.00;100.00;100263.03;4969888;28;20167;-71
2021/12/29 02:53:39;;;;;;;18.65;8.57;;;;;;;7.99;100.00;100274.69;4968581;28;20038;-71
2021/12/29 02:56:05;;;;;;;19.30;8.10;;;;;;;8.04;100.00;100277.88;4948290;28;20066;-73
2021/12/29 02:58:31;;;;;;;21.65;8.93;;;;;;;8.02;100.00;100263.75;4949004;28;20027;-72
2021/12/29 03:00:58;;;;;;;19.10;8.65;;;;;;;8.06;100.00;100265.22;4971588;28;20082;-71
2021/12/29 03:03:26;;;;;;;24.88;10.30;;;;;;;8.03;100.00;100269.00;4959075;28;20086;-72
2021/12/29 03:05:51;;;;;;;19.08;8.77;;;;;;;8.05;100.00;100284.91;4967114;28;20026;-70
2021/12/29 03:08:18;;;;;;;17.63;8.00;;;;;;;7.99;100.00;100290.72;4948184;28;20522;-71
2021/12/29 03:10:45;;;;;;;17.23;8.05;;;;;;;7.80;100.00;100262.72;4957549;28;20035;-70
2021/12/29 03:13:10;;;;;;;12.60;6.47;;;;;;;7.96;100.00;100305.19;4948252;28;20027;-71
2021/12/29 03:15:37;;;;;;;18.60;7.93;;;;;;;7.77;100.00;100273.63;4970035;28;20037;-71
2021/12/29 03:18:03;;;;;;;20.88;8.48;;;;;;;8.02;100.00;100304.72;4945645;28;20033;-71
2021/12/29 03:20:30;;;;;;;16.42;6.55;;;;;;;7.97;100.00;100309.56;4952300;28;20035;-71
2021/12/29 03:22:56;;;;;;;16.33;7.90;;;;;;;7.98;100.00;100318.41;4946123;28;20110;-71
2021/12/29 03:25:22;;;;;;;12.63;6.78;;;;;;;7.89;100.00;100325.31;4954494;28;20372;-71
2021/12/29 03:27:47;;;;;;;13.38;6.45;;;;;;;7.90;100.00;100335.91;4962428;28;20058;-71
2021/12/29 03:30:13;;;;;;;16.95;7.22;;;;;;;8.11;100.00;100327.22;4971244;28;20549;-71
2021/12/29 03:32:40;;;;;;;12.43;6.57;;;;;;;7.87;100.00;100298.72;4964692;28;20437;-71
2021/12/29 03:35:06;;;;;;;13.57;6.68;;;;;;;8.05;100.00;100325.88;4967990;28;20030;-71
2021/12/29 03:37:31;;;;;;;21.65;7.38;;;;;;;7.97;100.00;100328.28;4964348;28;20454;-71
2021/12/29 03:39:57;;;;;;;13.25;6.60;;;;;;;8.02;100.00;100339.47;4953463;28;20027;-71
2021/12/29 03:42:22;;;;;;;15.00;7.78;;;;;;;7.94;100.00;100339.19;4964015;28;20114;-71
2021/12/29 03:44:47;;;;;;;14.30;6.53;;;;;;;8.01;100.00;100353.81;4963533;28;20031;-71
2021/12/29 03:47:12;;;;;;;13.00;6.32;;;;;;;8.04;100.00;100360.75;4961621;28;20030;-71
2021/12/29 03:49:38;;;;;;;17.05;7.50;;;;;;;8.01;100.00;100364.50;4966696;28;20509;-72
2021/12/29 03:52:05;;;;;;;16.38;7.88;;;;;;;8.08;100.00;100370.25;4968807;28;20091;-71
2021/12/29 03:54:31;;;;;;;10.23;5.30;;;;;;;8.01;100.00;100379.69;4949367;28;20475;-71
2021/12/29 03:57:00;;;;;;;15.77;9.18;;;;;;;7.96;100.00;100374.69;4964616;28;20042;-72
2021/12/29 03:59:26;;;;;;;12.80;6.60;;;;;;;8.09;100.00;100382.66;4961200;28;20202;-71
2021/12/29 04:01:52;;;;;;;10.95;6.63;;;;;;;7.99;100.00;100376.28;4932828;28;20039;-71
2021/12/29 04:04:18;;;;;;;11.13;6.25;;;;;;;8.13;100.00;100393.97;4969859;28;20033;-71
2021/12/29 04:06:43;;;;;;;8.43;5.55;;;;;;;7.96;100.00;100361.31;4951804;28;20080;-70
2021/12/29 04:09:09;;;;;;;9.13;5.57;;;;;;;8.00;100.00;100389.53;4949518;28;20414;-70
2021/12/29 04:11:34;;;;;;;9.73;5.93;;;;;;;8.03;100.00;100397.34;4965089;28;20027;-71
2021/12/29 04:13:59;;;;;;;10.70;6.38;;;;;;;8.09;100.00;100393.34;4951250;28;20039;-71
2021/12/29 04:16:25;;;;;;;18.23;8.98;;;;;;;7.83;100.00;100357.84;4948947;28;20027;-72
2021/12/29 04:19:06;;;;;;;15.32;7.00;;;;;;;8.04;100.00;100388.34;4948307;28;20061;-71
2021/12/29 04:21:36;;;;;;;13.32;6.13;;;;;;;7.90;100.00;100378.69;4952024;28;20031;-71
2021/12/29 04:24:02;;;;;;;20.45;8.93;;;;;;;8.00;100.00;100410.06;4933776;28;20257;-72
2021/12/29 04:26:28;;;;;;;12.60;7.80;;;;;;;7.88;100.00;100398.44;4945099;28;20034;-69
2021/12/29 04:28:53;;;;;;;19.35;9.75;;;;;;;7.77;100.00;100383.22;4961792;28;20038;-75
2021/12/29 04:31:18;;;;;;;15.05;8.07;;;;;;;7.75;100.00;100374.44;4934754;28;20026;-71
2021/12/29 04:33:44;;;;;;;20.25;10.25;;;;;;;7.82;100.00;100394.41;4943543;28;20129;-72
2021/12/29 04:36:09;;;;;;;18.83;8.13;;;;;;;7.79;100.00;100408.88;4932798;28;20113;-71
2021/12/29 04:38:35;;;;;;;15.40;7.93;;;;;;;7.74;100.00;100396.78;4945380;28;20030;-71
2021/12/29 04:41:01;;;;;;;14.68;8.18;;;;;;;7.65;100.00;100384.97;4933850;28;20042;-70
2021/12/29 04:43:26;;;;;;;16.95;8.45;;;;;;;7.71;100.00;100399.69;4944148;28;20038;-71
2021/12/29 04:45:52;;;;;;;18.98;8.95;;;;;;;7.98;100.00;100422.69;4929901;28;20065;-71
2021/12/29 04:48:18;;;;;;;17.45;8.43;;;;;;;7.92;100.00;100429.34;4941955;28;20039;-71
2021/12/29 04:50:52;;;;;;;23.17;10.30;;;;;;;7.85;100.00;100420.06;4963959;28;20030;-71
2021/12/29 04:53:22;;;;;;;16.40;6.82;;;;;;;7.92;100.00;100443.56;4964635;28;20030;-71
2021/12/29 04:55:49;;;;;;;24.88;10.52;;;;;;;7.91;100.00;100439.19;4967637;28;20046;-72
2021/12/29 04:58:16;;;;;;;19.65;9.05;;;;;;;8.01;100.00;100457.22;4961848;28;20027;-71
2021/12/29 05:00:41;;;;;;;16.30;8.75;;;;;;;7.84;100.00;100440.59;4946377;28;20384;-71
2021/12/29 05:03:06;;;;;;;30.85;14.50;;;;;;;8.04;100.00;100457.00;4966736;28;20043;-73
2021/12/29 05:10:42;;;;;;;17.90;10.50;;;;;;;8.03;100.00;100464.19;4945613;28;20355;-71
2021/12/29 05:13:07;;;;;;;19.15;9.98;;;;;;;7.94;100.00;100465.72;4963734;28;20381;-73
2021/12/29 05:15:33;;;;;;;20.77;9.13;;;;;;;7.80;100.00;100445.31;4929062;28;20058;-72
2021/12/29 05:17:59;;;;;;;20.30;9.25;;;;;;;7.93;100.00;100488.06;4945568;28;20042;-71
2021/12/29 05:20:28;;;;;;;19.33;8.73;;;;;;;7.87;100.00;100459.09;4961133;28;20483;-71
2021/12/29 05:22:55;;;;;;;21.42;9.10;;;;;;;7.91;100.00;100473.94;4964371;28;20030;-70
2021/12/29 05:25:20;;;;;;;17.95;9.98;;;;;;;7.69;100.00;100445.22;4961209;28;20046;-71
2021/12/29 05:27:46;;;;;;;18.98;9.02;;;;;;;7.78;100.00;100446.38;4947169;28;20031;-71
2021/12/29 05:30:11;;;;;;;15.20;8.20;;;;;;;7.89;100.00;100475.88;4962019;28;20042;-71
2021/12/29 05:32:36;;;;;;;18.80;8.80;;;;;;;7.88;100.00;100468.81;4951092;28;20030;-71
2021/12/29 05:35:02;;;;;;;17.88;8.63;;;;;;;7.84;100.00;100478.03;4943227;28;20039;-71
2021/12/29 05:37:28;;;;;;;19.30;9.38;;;;;;;7.76;100.00;100470.56;4946082;28;20526;-70
2021/12/29 05:39:53;;;;;;;16.27;8.07;;;;;;;7.82;100.00;100479.94;4947131;28;20026;-71
2021/12/29 05:42:18;;;;;;;15.02;8.10;;;;;;;7.79;100.00;100477.50;4957117;28;20034;-71
2021/12/29 05:44:43;;;;;;;18.65;9.68;;;;;;;7.75;100.00;100452.81;4960049;28;20026;-71
2021/12/29 05:47:09;;;;;;;20.15;10.02;;;;;;;7.88;100.00;100476.84;4965287;28;20089;-71
2021/12/29 05:49:34;;;;;;;26.08;11.13;;;;;;;7.97;100.00;100480.66;4961565;28;20118;-72
2021/12/29 05:51:59;;;;;;;23.30;9.93;;;;;;;7.86;100.00;100489.47;4936471;28;20034;-71
2021/12/29 05:54:25;;;;;;;23.25;10.05;;;;;;;7.92;100.00;100481.00;4929252;28;20065;-71
2021/12/29 05:56:50;;;;;;;21.77;10.82;;;;;;;7.83;100.00;100481.66;4962767;28;20121;-70
2021/12/29 05:59:15;;;;;;;22.83;10.20;;;;;;;7.74;100.00;100461.81;4945606;28;20051;-71
2021/12/29 06:01:43;;;;;;;19.95;10.05;;;;;;;7.84;100.00;100495.84;4966850;28;20030;-70
2021/12/29 06:04:08;;;;;;;25.83;9.85;;;;;;;7.78;100.00;100473.97;4961222;28;20050;-70
2021/12/29 06:06:33;;;;;;;24.23;10.77;;;;;;;7.87;100.00;100493.84;4946395;28;20130;-71
2021/12/29 06:08:59;;;;;;;25.85;12.07;;;;;;;7.83;100.00;100499.50;4963941;28;20479;-71
2021/12/29 06:11:24;;;;;;;29.58;12.57;;;;;;;7.83;100.00;100484.31;4967865;28;20383;-71
2021/12/29 06:13:50;;;;;;;27.02;11.45;;;;;;;7.99;100.00;100500.13;4970676;28;20358;-70
2021/12/29 06:16:15;;;;;;;29.25;13.00;;;;;;;7.99;100.00;100497.44;4946965;28;20102;-70
2021/12/29 06:18:40;;;;;;;29.92;10.82;;;;;;;7.75;100.00;100486.69;4968299;28;20459;-70
2021/12/29 06:21:05;;;;;;;24.88;10.77;;;;;;;7.79;100.00;100505.09;4967770;28;20355;-70
2021/12/29 06:23:31;;;;;;;26.15;11.65;;;;;;;7.87;100.00;100515.22;4953329;28;20041;-70
2021/12/29 06:25:56;;;;;;;22.60;10.23;;;;;;;7.69;100.00;100501.34;4967572;28;20285;-70
2021/12/29 06:28:21;;;;;;;30.48;11.65;;;;;;;7.78;100.00;100527.44;4949138;28;20434;-71
2021/12/29 06:30:47;;;;;;;25.90;11.13;;;;;;;7.82;100.00;100533.41;4965219;28;20038;-70
2021/12/29 06:33:12;;;;;;;25.92;11.02;;;;;;;7.84;100.00;100535.94;4977124;28;20470;-70
2021/12/29 06:35:38;;;;;;;24.02;10.52;;;;;;;7.62;100.00;100500.94;4962981;28;20067;-70
2021/12/29 06:38:03;;;;;;;25.70;12.63;;;;;;;7.87;100.00;100536.59;4968718;28;20430;-72
2021/12/29 06:40:29;;;;;;;27.48;11.57;;;;;;;7.78;100.00;100532.78;4946514;28;20034;-71
2021/12/29 06:42:55;;;;;;;26.83;12.60;;;;;;;7.77;100.00;100519.50;4963004;28;20034;-72
2021/12/29 06:45:20;;;;;;;26.52;10.23;;;;;;;7.91;100.00;100551.47;4948957;28;20033;-71
2021/12/29 06:47:45;;;;;;;26.00;12.15;;;;;;;7.76;100.00;100526.69;4967155;28;20042;-71
2021/12/29 06:50:11;;;;;;;21.98;10.50;;;;;;;7.89;100.00;100555.19;4950155;28;20053;-71
2021/12/29 06:52:36;;;;;;;22.75;10.57;;;;;;;7.92;100.00;100558.53;4976320;28;20037;-71
2021/12/29 06:55:02;;;;;;;26.65;11.90;;;;;;;7.89;100.00;100555.19;4965528;28;20522;-71
2021/12/29 06:57:27;;;;;;;24.75;12.48;;;;;;;7.92;100.00;100561.19;4967485;28;20066;-72
2021/12/29 06:59:53;;;;;;;25.05;13.23;;;;;;;7.75;100.00;100550.81;4961849;28;20042;-71
2021/12/29 07:02:18;;;;;;;29.85;12.40;;;;;;;8.01;100.00;100566.84;4971741;28;20035;-71
2021/12/29 07:04:44;;;;;;;24.55;11.73;;;;;;;7.85;100.00;100573.28;4961676;28;20058;-71
2021/12/29 07:07:09;;;;;;;36.25;15.02;;;;;;;7.80;100.00;100583.44;4953314;28;20030;-72
2021/12/29 07:09:35;;;;;;;25.15;12.00;;;;;;;7.79;100.00;100571.03;4944818;28;20342;-72
2021/12/29 07:12:00;;;;;;;27.70;12.23;;;;;;;7.85;100.00;100575.97;4962485;28;20042;-71
2021/12/29 07:14:26;;;;;;;34.50;13.20;;;;;;;7.83;100.00;100582.34;4933988;28;20509;-71
2021/12/29 07:16:51;;;;;;;27.55;12.52;;;;;;;7.86;100.00;100587.50;4935379;28;20070;-71
2021/12/29 07:19:18;;;;;;;31.45;13.80;;;;;;;7.79;100.00;100585.28;4963118;28;20035;-71
2021/12/29 07:21:43;;;;;;;32.65;14.40;;;;;;;7.69;100.00;100576.19;4947799;28;20337;-72
2021/12/29 07:24:09;;;;;;;40.00;16.20;;;;;;;7.75;100.00;100594.47;4965065;28;20522;-72
2021/12/29 07:26:35;;;;;;;30.30;13.80;;;;;;;7.80;100.00;100603.03;4946775;28;20050;-71
2021/12/29 07:29:00;;;;;;;37.05;14.38;;;;;;;7.63;100.00;100601.53;4964182;28;20498;-73
2021/12/29 07:31:27;;;;;;;32.95;13.95;;;;;;;7.69;100.00;100610.03;4932270;28;20023;-71
2021/12/29 07:33:52;;;;;;;42.30;15.75;;;;;;;7.78;100.00;100612.09;4961285;28;20049;-72
2021/12/29 07:36:18;;;;;;;32.40;13.10;;;;;;;7.58;100.00;100594.75;4961609;28;20494;-71
2021/12/29 07:38:43;;;;;;;30.17;12.82;;;;;;;7.64;100.00;100607.69;4946625;28;20037;-71
2021/12/29 07:41:09;;;;;;;29.90;13.13;;;;;;;7.75;100.00;100605.16;4944432;28;20074;-71
2021/12/29 07:43:36;;;;;;;36.03;13.70;;;;;;;7.68;100.00;100611.03;4968215;28;20026;-71
2021/12/29 07:46:02;;;;;;;33.33;13.43;;;;;;;7.77;100.00;100631.75;4964913;28;20030;-71
2021/12/29 07:48:30;;;;;;;36.60;13.77;;;;;;;7.80;100.00;100629.75;4935409;28;20038;-71
2021/12/29 07:50:55;;;;;;;29.27;11.75;;;;;;;7.77;100.00;100627.28;4964707;28;20030;-71
2021/12/29 07:53:21;;;;;;;35.55;12.95;;;;;;;7.77;100.00;100639.78;4948378;28;20046;-71
2021/12/29 07:55:47;;;;;;;33.53;14.85;;;;;;;7.71;100.00;100645.53;4939971;28;20058;-71
2021/12/29 07:58:12;;;;;;;31.13;13.85;;;;;;;7.77;100.00;100637.09;4945954;28;20049;-71
2021/12/29 08:00:37;;;;;;;33.20;13.05;;;;;;;7.69;100.00;100618.94;4941583;28;20037;-71
2021/12/29 08:03:03;;;;;;;31.65;13.43;;;;;;;7.74;100.00;100638.19;4943253;28;22236;-71
2021/12/29 08:05:29;;;;;;;36.95;12.98;;;;;;;7.73;100.00;100625.78;4956148;28;20574;-71
2021/12/29 08:07:54;;;;;;;28.73;12.77;;;;;;;7.62;100.00;100617.63;4944785;28;20030;-71
2021/12/29 08:10:19;;;;;;;28.02;12.32;;;;;;;7.69;100.00;100616.25;4960759;28;20846;-71
2021/12/29 08:12:45;;;;;;;27.42;12.30;;;;;;;7.61;100.00;100624.81;4959755;28;20041;-71
2021/12/29 08:15:11;;;;;;;39.50;13.05;;;;;;;7.63;100.00;100622.03;4931121;28;20043;-72
2021/12/29 08:17:37;;;;;;;27.00;12.70;;;;;;;7.60;100.00;100624.91;4957389;28;20029;-71
2021/12/29 08:20:04;;;;;;;35.13;13.23;;;;;;;7.69;100.00;100621.59;4962158;28;20038;-71
2021/12/29 08:22:29;;;;;;;31.75;12.77;;;;;;;7.64;100.00;100623.72;4944186;28;20081;-71
2021/12/29 08:24:55;;;;;;;36.75;15.25;;;;;;;7.61;100.00;100607.91;4944499;28;20177;-72
2021/12/29 08:27:20;;;;;;;28.10;13.20;;;;;;;7.60;100.00;100624.91;4943188;28;20039;-71
2021/12/29 08:29:46;;;;;;;30.63;12.13;;;;;;;7.55;100.00;100614.53;4942922;28;20038;-71
2021/12/29 08:32:11;;;;;;;37.10;14.10;;;;;;;7.66;100.00;100632.50;4959137;28;20117;-71
2021/12/29 08:34:36;;;;;;;27.05;11.20;;;;;;;7.60;100.00;100641.81;4961275;28;20133;-71
2021/12/29 08:37:02;;;;;;;29.70;12.30;;;;;;;7.63;100.00;100635.38;4944919;28;20134;-72
2021/12/29 08:39:27;;;;;;;28.92;12.50;;;;;;;7.65;100.00;100639.69;4947931;28;20045;-71
2021/12/29 08:41:53;;;;;;;25.13;11.40;;;;;;;7.59;100.00;100644.56;4946758;28;20027;-71
2021/12/29 08:44:18;;;;;;;29.48;12.80;;;;;;;7.61;100.00;100632.84;4944029;28;20041;-70
2021/12/29 08:46:45;;;;;;;23.85;10.35;;;;;;;7.64;100.00;100647.78;4945571;28;20061;-70
2021/12/29 08:49:10;;;;;;;24.80;11.38;;;;;;;7.50;100.00;100638.03;4945123;28;20039;-75
2021/12/29 08:51:36;;;;;;;25.60;10.30;;;;;;;7.46;100.00;100624.06;4942462;28;20049;-72
2021/12/29 08:54:01;;;;;;;25.52;11.00;;;;;;;7.59;100.00;100641.91;4929126;28;20597;-71
2021/12/29 08:56:27;;;;;;;32.00;12.15;;;;;;;7.61;100.00;100638.19;4935173;28;20405;-71
2021/12/29 08:58:53;;;;;;;24.90;11.45;;;;;;;7.65;100.00;100646.81;4937603;28;20149;-71
2021/12/29 09:01:20;;;;;;;28.02;11.38;;;;;;;7.67;100.00;100650.25;4940771;28;20071;-69
2021/12/29 09:03:47;;;;;;;29.05;12.27;;;;;;;7.67;100.00;100642.22;4957354;28;20033;-69
2021/12/29 09:06:12;;;;;;;24.90;10.70;;;;;;;7.51;100.00;100610.38;4948383;28;20041;-68
2021/12/29 09:08:37;;;;;;;20.15;10.43;;;;;;;7.52;100.00;100611.25;4946618;28;20027;-68
2021/12/29 09:11:03;;;;;;;26.35;11.98;;;;;;;7.77;100.00;100653.13;4958829;28;20046;-69
2021/12/29 09:13:29;;;;;;;27.50;10.70;;;;;;;7.94;100.00;100654.66;4963564;28;20638;-68
2021/12/29 09:15:56;;;;;;;21.65;9.65;;;;;;;7.93;100.00;100655.59;4942138;28;20483;-68
2021/12/29 09:18:27;;;;;;;26.30;11.50;;;;;;;7.95;100.00;100651.84;4935836;28;20027;-68
2021/12/29 09:20:53;;;;;;;20.52;9.32;;;;;;;7.80;100.00;100619.06;4931529;28;20026;-68
2021/12/29 09:23:18;;;;;;;19.00;9.20;;;;;;;7.91;100.00;100645.03;4919432;28;20090;-68
2021/12/29 09:25:45;;;;;;;22.92;10.07;;;;;;;7.95;100.00;100641.16;4918607;28;20484;-69
2021/12/29 09:28:13;;;;;;;20.13;9.95;;;;;;;7.99;100.00;100647.16;4936048;28;20035;-68
2021/12/29 09:30:39;;;;;;;19.05;9.32;;;;;;;8.02;100.00;100640.72;4954750;28;20031;-68
2021/12/29 09:33:07;;;;;;;17.67;8.60;;;;;;;7.84;100.00;100621.47;4956099;28;20052;-68
2021/12/29 09:35:32;;;;;;;20.92;9.00;;;;;;;8.08;100.00;100643.81;4961770;28;20054;-68
2021/12/29 09:37:57;;;;;;;18.10;9.50;;;;;;;8.07;100.00;100647.50;4940044;28;20027;-68
2021/12/29 09:40:24;;;;;;;25.27;11.88;;;;;;;8.12;100.00;100636.47;4944864;28;20078;-68
2021/12/29 09:42:51;;;;;;;22.80;9.57;;;;;;;8.13;100.00;100622.13;4961583;28;20427;-69
2021/12/29 09:45:17;;;;;;;25.00;12.27;;;;;;;8.30;100.00;100630.75;4955800;28;20443;-69
2021/12/29 09:47:43;;;;;;;19.73;9.38;;;;;;;8.06;100.00;100611.03;4957747;28;20027;-68
2021/12/29 09:50:11;;;;;;;29.00;11.90;;;;;;;8.25;100.00;100634.59;4923002;28;1016173;-69
2021/12/29 09:52:37;;;;;;;23.02;12.35;;;;;;;7.85;100.00;100588.44;4939845;28;20093;-68
2021/12/29 09:55:08;;;;;;;22.65;10.15;;;;;;;8.13;100.00;100642.66;4942904;28;20069;-69
2021/12/29 09:57:35;;;;;;;21.20;10.35;;;;;;;7.93;100.00;100644.91;4957736;28;20387;-68
2021/12/29 10:00:05;;;;;;;24.42;12.15;;;;;;;8.13;100.00;100639.97;4959122;28;20486;-69
2021/12/29 10:02:30;;;;;;;22.80;12.02;;;;;;;8.27;100.00;100639.88;4958454;28;21243;-69
2021/12/29 10:04:57;;;;;;;25.10;11.77;;;;;;;8.35;100.00;100634.78;4959884;28;20026;-69
2021/12/29 10:07:23;;;;;;;18.55;11.38;;;;;;;8.50;100.00;100634.72;4958129;28;20081;-68
2021/12/29 10:09:48;;;;;;;17.90;10.57;;;;;;;8.29;100.00;100629.03;4943375;28;20027;-68
2021/12/29 10:12:21;;;;;;;22.42;11.50;;;;;;;8.58;100.00;100639.50;4960900;28;20402;-69
2021/12/29 10:14:53;;;;;;;22.85;11.90;;;;;;;8.54;100.00;100633.53;4960883;28;20098;-68
2021/12/29 10:17:21;;;;;;;27.88;13.25;;;;;;;8.92;100.00;100602.22;4953668;28;20030;-69
2021/12/29 10:19:46;;;;;;;18.50;10.38;;;;;;;9.07;100.00;100635.03;4935368;28;20759;-70
2021/12/29 10:22:22;;;;;;;20.90;11.63;;;;;;;9.09;100.00;100635.78;4957203;28;20051;-68
2021/12/29 10:24:48;;;;;;;18.15;11.98;;;;;;;9.25;100.00;100630.13;4943739;28;20035;-68
2021/12/29 10:27:19;;;;;;;16.52;10.13;;;;;;;9.36;100.00;100635.50;4942486;28;20709;-68
2021/12/29 10:29:45;;;;;;;21.92;13.32;;;;;;;9.58;100.00;100629.38;4961100;28;20023;-68
2021/12/29 10:32:10;;;;;;;17.70;10.25;;;;;;;9.42;100.00;100628.81;4943242;28;20030;-69
2021/12/29 10:34:36;;;;;;;23.38;12.30;;;;;;;9.12;100.00;100582.81;4963454;28;20030;-74
2021/12/29 10:37:05;;;;;;;17.63;11.35;;;;;;;9.29;100.00;100615.50;4943279;28;20037;-74
2021/12/29 10:39:39;;;;;;;15.40;10.93;;;;;;;9.07;100.00;100601.06;4966181;28;20464;-74
2021/12/29 10:42:13;;;;;;;22.63;11.35;;;;;;;9.00;100.00;100608.72;4942231;28;20165;-74
2021/12/29 10:44:49;;;;;;;22.50;10.35;;;;;;;8.91;100.00;100581.75;4928343;28;20041;-75
2021/12/29 10:47:31;;;;;;;21.60;11.35;;;;;;;9.27;100.00;100585.31;4948016;28;20150;-74
2021/12/29 10:50:05;;;;;;;24.42;12.82;;;;;;;8.79;100.00;100608.47;4944110;28;20112;-75
2021/12/29 10:52:46;;;;;;;22.50;13.02;;;;;;;8.75;100.00;100592.75;4961655;28;20027;-73
2021/12/29 10:55:14;;;;;;;21.20;14.23;;;;;;;8.75;100.00;100609.66;4959326;28;20054;-73
2021/12/29 10:57:40;;;;;;;19.55;9.68;;;;;;;8.54;100.00;100596.06;4927031;28;20113;-74
2021/12/29 11:00:08;;;;;;;24.08;13.57;;;;;;;8.81;100.00;100576.25;4964259;28;20030;-74
2021/12/29 11:02:37;;;;;;;20.52;11.70;;;;;;;8.75;100.00;100601.63;4929954;28;20041;-74
2021/12/29 11:05:07;;;;;;;24.17;13.07;;;;;;;9.04;100.00;100576.34;4946464;28;20467;-73
2021/12/29 11:07:34;;;;;;;27.08;14.02;;;;;;;9.18;100.00;100592.19;4965582;28;20031;-73
2021/12/29 11:10:12;;;;;;;18.10;9.65;;;;;;;8.67;100.00;100593.34;4947843;28;20031;-74
2021/12/29 11:12:49;;;;;;;27.02;12.63;;;;;;;8.38;100.00;100594.44;4964028;28;20037;-74
2021/12/29 11:15:24;;;;;;;21.75;12.60;;;;;;;8.53;100.00;100626.47;4949601;28;20509;-74
2021/12/29 11:17:51;;;;;;;26.52;13.27;;;;;;;8.77;100.00;100634.50;4948477;28;20034;-73
2021/12/29 11:20:18;;;;;;;22.15;11.70;;;;;;;8.54;100.00;100638.88;4948819;28;20031;-76